Time;durP1;ratioP1;P1;durP2;ratioP2;P2;SDS_P1;SDS_P2;PMS_P1;PMS_P2;Temp;Humidity;BMP_temperature;BMP_pressure;BME280_temperature;BME280_humidity;BME280_pressure;Samples;Min_cycle;Max_cycle;Signal;HPM_P1;HPM_P2
2022/06/16 00:00:19;;;;;;;4.15;2.03;;;;;;;16.23;66.65;96947.56;5095181;28;20062;-62
2022/06/16 00:02:50;;;;;;;6.38;2.20;;;;;;;16.24;66.92;96936.94;5096392;28;20044;-62
2022/06/16 00:05:25;;;;;;;5.03;1.92;;;;;;;16.31;68.12;96940.06;5096437;28;20104;-62
2022/06/16 00:07:51;;;;;;;7.35;2.65;;;;;;;16.33;68.49;96939.97;5096300;28;20113;-62
2022/06/16 00:10:18;;;;;;;4.97;1.88;;;;;;;16.27;66.80;96938.53;5096073;28;20076;-62
2022/06/16 00:12:43;;;;;;;3.63;1.80;;;;;;;16.27;66.87;96933.25;5095039;28;20055;-62
2022/06/16 00:15:13;;;;;;;5.50;1.95;;;;;;;16.24;66.85;96933.44;5096218;28;20056;-62
2022/06/16 00:17:39;;;;;;;2.80;1.90;;;;;;;16.23;66.92;96931.72;5095915;28;20044;-62
2022/06/16 00:20:07;;;;;;;3.78;1.80;;;;;;;16.24;67.45;96942.22;5095991;28;20024;-62
2022/06/16 00:22:33;;;;;;;7.18;2.25;;;;;;;16.19;66.97;96938.13;5096053;28;20032;-62
2022/06/16 00:24:59;;;;;;;4.20;1.77;;;;;;;16.15;66.79;96937.41;5095993;28;20085;-62
2022/06/16 00:27:25;;;;;;;5.65;1.98;;;;;;;16.16;67.36;96929.41;5095973;28;20020;-62
2022/06/16 00:29:50;;;;;;;8.75;2.33;;;;;;;16.18;66.76;96931.97;5095896;28;20030;-62
2022/06/16 00:32:16;;;;;;;3.63;2.05;;;;;;;16.14;67.15;96935.72;5095638;28;20024;-62
2022/06/16 00:34:42;;;;;;;3.60;1.90;;;;;;;16.07;66.78;96935.19;5094398;28;20442;-62
2022/06/16 00:37:07;;;;;;;4.55;1.85;;;;;;;15.98;66.29;96938.34;5095683;28;20020;-62
2022/06/16 00:39:33;;;;;;;4.88;2.20;;;;;;;15.94;67.12;96939.41;5095621;28;20016;-62
2022/06/16 00:42:08;;;;;;;8.23;2.08;;;;;;;15.86;67.43;96939.81;5095569;28;20115;-62
2022/06/16 00:44:33;;;;;;;9.25;2.33;;;;;;;15.77;67.34;96930.59;5095676;28;20373;-62
2022/06/16 00:46:59;;;;;;;6.75;2.15;;;;;;;15.64;67.79;96936.53;5095491;28;20017;-62
2022/06/16 00:49:27;;;;;;;3.95;1.83;;;;;;;15.59;67.91;96937.72;5095634;28;20378;-62
2022/06/16 00:52:00;;;;;;;5.38;2.33;;;;;;;15.49;68.00;96942.59;5095323;28;20489;-62
2022/06/16 00:54:27;;;;;;;14.20;2.20;;;;;;;15.46;68.44;96940.97;5095465;28;20043;-62
2022/06/16 00:56:56;;;;;;;5.35;2.00;;;;;;;15.45;68.36;96941.91;5095231;28;20066;-62
2022/06/16 00:59:22;;;;;;;9.55;2.20;;;;;;;15.40;68.42;96941.28;5095165;28;20373;-62
2022/06/16 01:01:48;;;;;;;4.85;1.88;;;;;;;15.34;68.60;96931.03;5095130;28;20470;-62
2022/06/16 01:07:04;;;;;;;5.53;2.05;;;;;;;15.15;68.63;96932.81;5095604;28;20039;-62
2022/06/16 01:09:33;;;;;;;7.55;2.47;;;;;;;15.01;68.58;96930.91;5094959;28;20028;-61
2022/06/16 01:15:01;;;;;;;4.65;1.88;;;;;;;14.82;68.84;96930.09;5095001;28;20035;-61
2022/06/16 01:17:48;;;;;;;9.00;2.08;;;;;;;14.70;69.33;96931.53;5094801;28;20840;-61
2022/06/16 01:20:38;;;;;;;5.35;2.17;;;;;;;14.58;69.65;96936.47;5094834;28;20115;-62
2022/06/16 01:23:28;;;;;;;8.83;1.93;;;;;;;14.48;70.38;96935.19;5094925;28;20042;-62
2022/06/16 01:25:53;;;;;;;4.20;2.03;;;;;;;14.30;69.29;96927.22;5094652;28;20024;-61
2022/06/16 01:28:29;;;;;;;21.80;2.50;;;;;;;14.08;70.25;96933.50;5094658;28;20027;-61
2022/06/16 01:31:04;;;;;;;6.88;2.40;;;;;;;13.88;71.18;96932.63;5094695;28;20016;-61
2022/06/16 01:33:40;;;;;;;7.63;2.40;;;;;;;13.72;73.09;96927.19;5094546;28;20036;-61
2022/06/16 01:36:18;;;;;;;6.88;1.95;;;;;;;13.65;74.50;96925.78;5094525;28;20100;-62
2022/06/16 01:38:57;;;;;;;4.43;2.40;;;;;;;13.67;74.35;96923.94;5094568;28;20474;-62
2022/06/16 01:41:28;;;;;;;6.47;2.30;;;;;;;13.72;73.51;96919.31;5094534;28;20024;-62
2022/06/16 01:44:30;;;;;;;4.72;2.38;;;;;;;13.77;73.27;96919.97;5094505;28;20093;-62
2022/06/16 01:47:00;;;;;;;2.50;2.08;;;;;;;13.66;72.94;96918.75;5088742;28;20036;-62
2022/06/16 01:49:33;;;;;;;6.40;2.65;;;;;;;13.49;74.38;96918.56;5094309;28;20024;-62
2022/06/16 01:52:08;;;;;;;5.22;2.80;;;;;;;13.51;74.80;96911.47;5094329;28;20104;-62
2022/06/16 01:54:43;;;;;;;3.10;2.13;;;;;;;13.51;74.35;96911.47;5093163;28;20028;-62
2022/06/16 01:57:10;;;;;;;3.08;2.22;;;;;;;13.58;74.49;96919.91;5094169;28;20032;-62
2022/06/16 01:59:55;;;;;;;5.82;2.60;;;;;;;13.61;74.04;96926.84;5094139;28;20489;-63
2022/06/16 02:02:24;;;;;;;6.30;2.75;;;;;;;13.61;73.97;96925.03;5094093;28;20024;-62
2022/06/16 02:04:53;;;;;;;4.35;2.55;;;;;;;13.71;73.51;96916.75;5094160;28;20017;-63
2022/06/16 02:07:34;;;;;;;3.35;2.20;;;;;;;13.70;73.19;96913.25;5093969;28;20540;-63
2022/06/16 02:10:10;;;;;;;3.10;2.20;;;;;;;13.64;72.88;96917.03;5093927;28;20039;-63
2022/06/16 02:12:55;;;;;;;4.40;2.08;;;;;;;13.52;72.92;96913.16;5093933;28;20035;-62
2022/06/16 02:15:59;;;;;;;10.00;2.50;;;;;;;13.35;73.47;96920.91;5093785;28;20024;-63
2022/06/16 02:18:30;;;;;;;11.02;2.50;;;;;;;13.10;74.36;96914.91;5089904;28;20051;-62
2022/06/16 02:21:13;;;;;;;;;;;;;;;13.13;75.02;96917.41;5094145;28;20036;-63
2022/06/16 02:23:39;;;;;;;6.57;2.50;;;;;;;13.12;75.15;96914.84;5093604;28;19935;-63
2022/06/16 02:26:05;;;;;;;4.45;2.95;;;;;;;13.04;74.83;96914.34;5093577;28;20539;-63
2022/06/16 02:28:43;;;;;;;7.80;2.42;;;;;;;13.04;75.13;96907.31;5093596;28;20024;-63
2022/06/16 02:31:56;;;;;;;3.58;2.45;;;;;;;13.10;75.15;96922.78;5093766;28;20488;-63
2022/06/16 02:34:40;;;;;;;8.00;2.25;;;;;;;13.12;74.83;96925.34;5093449;28;20055;-63
2022/06/16 02:37:31;;;;;;;6.30;2.08;;;;;;;13.17;74.19;96922.53;5093404;28;20032;-62
2022/06/16 02:40:02;;;;;;;;;;;;;;;13.17;73.98;96923.41;5093870;28;20032;-62
2022/06/16 02:42:58;;;;;;;5.10;1.98;;;;;;;13.11;74.41;96921.91;5093491;28;19997;-62
2022/06/16 02:45:48;;;;;;;4.18;2.47;;;;;;;13.13;74.67;96922.66;5093329;28;20089;-63
2022/06/16 02:48:37;;;;;;;2.87;2.23;;;;;;;13.16;74.58;96933.97;5093467;28;20032;-63
2022/06/16 02:51:28;;;;;;;7.25;2.60;;;;;;;13.18;74.26;96935.59;5093355;28;20537;-63
2022/06/16 02:54:10;;;;;;;7.78;2.58;;;;;;;13.19;74.04;96946.97;5093350;28;20035;-62
2022/06/16 02:56:43;;;;;;;4.38;2.20;;;;;;;13.24;74.12;96943.22;5093263;28;20039;-63
2022/06/16 02:59:32;;;;;;;2.55;1.90;;;;;;;13.30;73.72;96936.03;5093302;28;20035;-62
2022/06/16 03:02:08;;;;;;;2.72;2.17;;;;;;;13.18;73.90;96938.22;5093219;28;20390;-62
2022/06/16 03:04:42;;;;;;;7.53;2.10;;;;;;;13.17;74.19;96946.19;5093253;28;20017;-63
2022/06/16 03:07:11;;;;;;;3.92;2.30;;;;;;;13.19;74.79;96939.97;5093158;28;20057;-62
2022/06/16 03:09:37;;;;;;;5.85;2.33;;;;;;;13.29;74.86;96936.91;5093161;28;20482;-63
2022/06/16 03:12:04;;;;;;;3.55;2.22;;;;;;;13.33;74.30;96939.34;5093139;28;20038;-63
2022/06/16 03:14:30;;;;;;;9.45;2.40;;;;;;;13.37;74.17;96943.56;5093095;28;20113;-62
2022/06/16 03:16:57;;;;;;;2.97;2.20;;;;;;;13.45;74.32;96943.22;5092816;28;20502;-63
2022/06/16 03:19:23;;;;;;;4.72;2.03;;;;;;;13.55;74.17;96940.25;5093040;28;20059;-63
2022/06/16 03:21:49;;;;;;;2.15;1.95;;;;;;;13.59;73.98;96939.19;5092938;28;20044;-62
2022/06/16 03:24:15;;;;;;;2.70;2.25;;;;;;;13.57;73.61;96948.94;5092940;28;20373;-62
2022/06/16 03:26:41;;;;;;;4.85;2.08;;;;;;;13.67;73.47;96937.09;5093052;28;20019;-63
2022/06/16 03:29:07;;;;;;;6.63;2.15;;;;;;;13.83;72.93;96939.00;5092990;28;20059;-63
2022/06/16 03:31:33;;;;;;;3.90;2.33;;;;;;;14.05;72.49;96941.53;5092959;28;20375;-62
2022/06/16 03:33:58;;;;;;;3.72;2.40;;;;;;;14.32;71.74;96933.28;5093829;28;20111;-63
2022/06/16 03:36:24;;;;;;;3.67;2.08;;;;;;;14.64;71.06;96938.81;5096770;28;20024;-63
2022/06/16 03:38:50;;;;;;;6.72;2.30;;;;;;;15.05;70.03;96925.47;5096871;28;20539;-63
2022/06/16 03:41:15;;;;;;;4.97;2.10;;;;;;;15.47;68.80;96931.28;5096906;28;20098;-63
2022/06/16 03:43:41;;;;;;;5.90;2.17;;;;;;;15.87;67.49;96931.81;5096849;28;20104;-63
2022/06/16 03:46:07;;;;;;;7.10;2.35;;;;;;;16.23;65.72;96929.09;5096604;28;20048;-63
2022/06/16 03:48:33;;;;;;;3.50;2.13;;;;;;;16.57;64.44;96929.84;5096608;28;20533;-63
2022/06/16 03:50:59;;;;;;;2.30;2.10;;;;;;;16.87;63.93;96931.69;5096517;28;20024;-63
2022/06/16 03:53:24;;;;;;;5.40;2.10;;;;;;;17.25;62.59;96929.59;5096546;28;20016;-63
2022/06/16 03:55:50;;;;;;;2.42;1.80;;;;;;;17.59;61.61;96937.28;5096490;28;20020;-63
2022/06/16 03:58:16;;;;;;;5.10;1.90;;;;;;;17.87;61.53;96940.88;5096603;28;20122;-62
2022/06/16 04:00:42;;;;;;;5.18;2.10;;;;;;;18.12;61.42;96944.72;5096417;28;20020;-63
2022/06/16 04:05:52;;;;;;;3.97;2.00;;;;;;;18.77;59.58;96937.09;5096738;28;20113;-63
2022/06/16 04:08:19;;;;;;;5.03;2.58;;;;;;;18.86;59.86;96930.34;5096482;28;20050;-63
2022/06/16 04:10:46;;;;;;;2.92;2.28;;;;;;;19.21;59.33;96937.81;5096373;28;20035;-63
2022/06/16 04:13:13;;;;;;;5.35;2.47;;;;;;;19.55;58.72;96937.31;5096213;28;20103;-63
2022/06/16 04:15:38;;;;;;;3.67;2.13;;;;;;;20.02;57.84;96942.94;5095747;28;20424;-64
2022/06/16 04:18:05;;;;;;;4.82;2.03;;;;;;;20.45;56.67;96933.75;5095900;28;20083;-64
2022/06/16 04:20:31;;;;;;;7.05;2.35;;;;;;;20.80;55.47;96934.78;5095991;28;20088;-63
2022/06/16 04:22:56;;;;;;;4.93;2.05;;;;;;;21.16;54.14;96932.19;5096030;28;20416;-63
2022/06/16 04:25:30;;;;;;;1.77;1.67;;;;;;;21.43;54.22;96940.88;5096030;28;20028;-63
2022/06/16 04:27:58;;;;;;;3.38;1.70;;;;;;;21.73;54.02;96942.09;5095905;28;20452;-64
2022/06/16 04:30:23;;;;;;;4.00;1.65;;;;;;;21.95;52.59;96935.16;5095940;28;20039;-63
2022/06/16 04:32:49;;;;;;;4.43;1.63;;;;;;;22.21;52.35;96934.91;5095845;28;20016;-64
2022/06/16 04:35:14;;;;;;;6.50;2.10;;;;;;;22.47;51.73;96923.97;5095579;28;20047;-63
2022/06/16 04:37:40;;;;;;;2.05;1.85;;;;;;;22.78;51.54;96931.34;5095653;28;20028;-64
2022/06/16 04:40:08;;;;;;;5.40;2.15;;;;;;;23.05;51.15;96928.19;5095719;28;20105;-64
2022/06/16 04:42:34;;;;;;;7.57;2.03;;;;;;;23.26;50.09;96930.03;5095529;28;20026;-64
2022/06/16 04:44:59;;;;;;;6.07;1.98;;;;;;;23.51;48.20;96927.16;5095234;28;20036;-64
2022/06/16 04:47:25;;;;;;;9.15;2.17;;;;;;;23.73;48.34;96927.03;5095584;28;20032;-63
2022/06/16 04:49:51;;;;;;;6.82;1.60;;;;;;;23.97;48.71;96936.56;5095546;28;20466;-63
2022/06/16 04:52:18;;;;;;;6.93;2.42;;;;;;;24.09;48.22;96926.63;5095513;28;20044;-64
2022/06/16 04:54:48;;;;;;;8.73;2.10;;;;;;;24.32;48.44;96937.13;5095366;28;20027;-63
2022/06/16 04:57:14;;;;;;;6.68;2.53;;;;;;;24.49;47.71;96924.09;5095308;28;20485;-64
2022/06/16 04:59:41;;;;;;;19.52;2.42;;;;;;;24.70;46.13;96933.84;5095263;28;20081;-63
2022/06/16 05:02:06;;;;;;;4.47;2.25;;;;;;;24.78;46.46;96928.66;5095186;28;20021;-63
2022/06/16 05:04:33;;;;;;;3.13;2.42;;;;;;;24.95;45.04;96929.00;5095293;28;20035;-64
2022/06/16 05:06:59;;;;;;;14.43;2.70;;;;;;;25.07;45.08;96927.03;5095272;28;20042;-64
2022/06/16 05:09:25;;;;;;;5.35;2.40;;;;;;;25.18;44.52;96929.56;5095176;28;20052;-64
2022/06/16 05:11:50;;;;;;;5.40;2.50;;;;;;;25.33;46.59;96940.69;5094988;28;20032;-64
2022/06/16 05:14:16;;;;;;;3.13;2.00;;;;;;;25.44;44.27;96936.16;5094956;28;20024;-64
2022/06/16 05:16:42;;;;;;;3.72;2.38;;;;;;;25.55;44.81;96938.66;5094518;28;20055;-65
2022/06/16 05:19:08;;;;;;;5.57;2.30;;;;;;;25.73;46.03;96946.00;5094972;28;20020;-64
2022/06/16 05:21:33;;;;;;;3.50;2.05;;;;;;;25.94;45.01;96942.25;5094996;28;20026;-64
2022/06/16 05:23:59;;;;;;;2.13;1.92;;;;;;;26.22;42.72;96932.44;5094852;28;20050;-64
2022/06/16 05:26:25;;;;;;;4.28;1.85;;;;;;;26.52;44.60;96936.84;5094712;28;20050;-64
2022/06/16 05:28:50;;;;;;;5.43;2.42;;;;;;;26.80;44.26;96943.03;5094640;28;20147;-64
2022/06/16 05:31:16;;;;;;;5.47;1.77;;;;;;;27.01;42.99;96933.88;5094647;28;20474;-65
2022/06/16 05:33:41;;;;;;;5.88;2.05;;;;;;;27.03;41.81;96934.53;5094703;28;20359;-64
2022/06/16 05:36:12;;;;;;;4.53;2.28;;;;;;;27.08;41.81;96940.31;5093087;28;20115;-65
2022/06/16 05:38:38;;;;;;;3.88;1.77;;;;;;;27.18;40.48;96942.91;5094429;28;20019;-64
2022/06/16 05:41:10;;;;;;;2.03;1.70;;;;;;;27.40;41.01;96942.59;5094351;28;20012;-64
2022/06/16 05:43:36;;;;;;;5.72;1.70;;;;;;;27.65;39.23;96935.59;5094438;28;20035;-64
2022/06/16 05:46:04;;;;;;;2.85;1.80;;;;;;;27.67;40.80;96938.97;5094275;28;20488;-64
2022/06/16 05:48:30;;;;;;;2.42;1.80;;;;;;;27.68;37.28;96943.34;5094315;28;20469;-65
2022/06/16 05:51:03;;;;;;;2.17;1.73;;;;;;;27.72;37.35;96939.31;5094310;28;20020;-64
2022/06/16 05:53:28;;;;;;;4.97;1.67;;;;;;;27.63;36.27;96946.47;5094330;28;20035;-64
2022/06/16 05:55:55;;;;;;;4.22;1.90;;;;;;;27.53;37.54;96943.03;5093905;28;20024;-64
2022/06/16 05:58:20;;;;;;;3.33;1.52;;;;;;;27.66;38.08;96948.00;5093686;28;20413;-64
2022/06/16 06:00:46;;;;;;;2.42;1.90;;;;;;;27.88;38.20;96945.81;5093964;28;20028;-65
2022/06/16 06:03:12;;;;;;;3.88;1.80;;;;;;;28.04;37.48;96952.28;5093953;28;20020;-64
2022/06/16 06:05:38;;;;;;;4.10;1.77;;;;;;;28.15;37.18;96951.16;5093969;28;20027;-64
2022/06/16 06:16:28;;;;;;;6.20;1.90;;;;;;;28.62;36.83;96950.72;5093580;28;20100;-65
2022/06/16 06:18:59;;;;;;;3.63;1.38;;;;;;;28.76;37.62;96943.88;5093760;28;20051;-64
2022/06/16 06:24:11;;;;;;;2.92;1.90;;;;;;;28.80;36.99;96949.75;5093019;28;20043;-65
2022/06/16 06:26:37;;;;;;;2.75;2.05;;;;;;;28.81;37.57;96950.63;5093541;28;20024;-64
2022/06/16 06:29:03;;;;;;;7.38;2.08;;;;;;;28.46;34.96;96954.19;5093745;28;20013;-64
2022/06/16 06:31:29;;;;;;;4.70;1.70;;;;;;;28.61;35.62;96956.28;5093630;28;20024;-64
2022/06/16 06:33:55;;;;;;;2.58;1.52;;;;;;;28.57;34.91;96953.06;5093495;28;20028;-64
2022/06/16 06:36:20;;;;;;;2.58;2.00;;;;;;;28.43;35.61;96957.22;5093413;28;20035;-65
2022/06/16 06:38:46;;;;;;;3.47;1.70;;;;;;;28.53;35.02;96961.63;5093293;28;20086;-64
2022/06/16 06:41:12;;;;;;;3.70;1.85;;;;;;;28.76;36.73;96956.47;5093349;28;20027;-65
2022/06/16 06:43:37;;;;;;;3.60;1.90;;;;;;;28.95;36.12;96949.16;5093353;28;20035;-64
2022/06/16 06:46:03;;;;;;;5.05;1.85;;;;;;;28.98;35.24;96952.34;5093400;28;20028;-64
2022/06/16 06:48:28;;;;;;;11.90;1.80;;;;;;;28.86;36.92;96948.25;5093302;28;20092;-65
2022/06/16 06:50:54;;;;;;;3.80;2.05;;;;;;;28.75;37.35;96952.94;5093188;28;20084;-64
2022/06/16 06:53:19;;;;;;;2.33;1.80;;;;;;;28.11;35.19;96947.97;5093175;28;20020;-64
2022/06/16 06:55:46;;;;;;;2.63;1.92;;;;;;;28.07;38.67;96947.44;5093083;28;20020;-64
2022/06/16 06:58:23;;;;;;;6.45;1.73;;;;;;;28.55;37.58;96948.84;5093118;28;20024;-64
2022/06/16 07:00:53;;;;;;;5.63;1.80;;;;;;;28.98;36.67;96952.34;5093168;28;20020;-64
2022/06/16 07:03:20;;;;;;;4.67;1.87;;;;;;;29.33;36.28;96956.78;5093127;28;20028;-64
2022/06/16 07:05:47;;;;;;;2.85;1.88;;;;;;;29.39;35.03;96956.09;5093013;28;20024;-64
2022/06/16 07:08:13;;;;;;;3.00;2.00;;;;;;;29.34;35.17;96953.91;5093314;28;20024;-64
2022/06/16 07:10:40;;;;;;;2.58;1.65;;;;;;;29.33;36.39;96952.22;5097475;28;20489;-64
2022/06/16 07:13:06;;;;;;;6.40;1.63;;;;;;;29.43;35.13;96946.66;5097299;28;20107;-64
2022/06/16 07:15:31;;;;;;;3.25;1.60;;;;;;;29.50;36.01;96952.25;5097160;28;20553;-64
2022/06/16 07:17:57;;;;;;;3.47;1.73;;;;;;;29.48;35.05;96944.31;5096984;28;20521;-64
2022/06/16 07:20:22;;;;;;;2.63;1.80;;;;;;;29.66;35.78;96945.16;5097196;28;20077;-64
2022/06/16 07:22:48;;;;;;;1.92;1.60;;;;;;;29.74;34.82;96948.69;5097070;28;20012;-64
2022/06/16 07:25:15;;;;;;;6.50;2.25;;;;;;;29.81;33.95;96946.16;5097049;28;20051;-64
2022/06/16 07:27:41;;;;;;;2.40;1.50;;;;;;;29.99;35.41;96945.13;5096998;28;20023;-64
2022/06/16 07:30:13;;;;;;;2.03;1.50;;;;;;;30.14;35.18;96950.63;5096947;28;20023;-64
2022/06/16 07:32:43;;;;;;;2.58;1.73;;;;;;;30.25;35.75;96946.78;5097159;28;20081;-64
2022/06/16 07:35:11;;;;;;;3.47;1.90;;;;;;;30.45;34.79;96955.28;5096999;28;20378;-64
2022/06/16 07:37:37;;;;;;;3.00;1.65;;;;;;;30.60;33.26;96952.69;5096917;28;20028;-64
2022/06/16 07:40:04;;;;;;;2.47;1.83;;;;;;;30.85;33.38;96951.75;5096744;28;20153;-64
2022/06/16 07:42:29;;;;;;;3.85;1.70;;;;;;;30.87;32.68;96955.94;5096676;28;20389;-64
2022/06/16 07:44:55;;;;;;;2.08;1.35;;;;;;;29.61;32.56;96951.06;5096789;28;20023;-64
2022/06/16 07:47:21;;;;;;;2.55;1.80;;;;;;;28.59;33.61;96952.91;5096792;28;20051;-63
2022/06/16 07:49:50;;;;;;;1.70;1.60;;;;;;;28.42;33.88;96958.22;5096634;28;20024;-63
2022/06/16 07:52:16;;;;;;;3.55;2.03;;;;;;;28.12;35.75;96955.84;5096556;28;20040;-63
2022/06/16 07:54:44;;;;;;;5.50;1.80;;;;;;;27.70;36.23;96949.41;5096637;28;20109;-63
2022/06/16 07:57:11;;;;;;;3.90;1.63;;;;;;;27.59;37.68;96949.63;5096476;28;20028;-63
2022/06/16 07:59:37;;;;;;;6.28;1.92;;;;;;;27.33;37.44;96953.94;5096513;28;20020;-63
2022/06/16 08:02:03;;;;;;;3.70;1.58;;;;;;;26.98;38.85;96951.13;5096407;28;20020;-63
2022/06/16 08:04:29;;;;;;;1.73;1.63;;;;;;;26.59;38.67;96957.56;5096406;28;20024;-63
2022/06/16 08:07:00;;;;;;;3.17;1.67;;;;;;;26.65;38.83;96953.44;5096365;28;20024;-63
2022/06/16 08:09:27;;;;;;;2.17;1.98;;;;;;;27.00;37.71;96938.38;5096375;28;20081;-63
2022/06/16 08:12:08;;;;;;;5.65;1.90;;;;;;;27.17;38.93;96949.28;5096180;28;20016;-63
2022/06/16 08:14:39;;;;;;;;;;;;;;;27.17;36.70;96940.38;5096605;28;20020;-63
2022/06/16 08:17:08;;;;;;;6.68;1.88;;;;;;;27.30;37.51;96940.00;5095833;28;19969;-63
2022/06/16 08:19:33;;;;;;;4.90;1.85;;;;;;;27.40;37.58;96948.81;5095381;28;20077;-63
2022/06/16 08:21:59;;;;;;;5.97;2.15;;;;;;;27.04;37.80;96947.00;5095941;28;20024;-63
2022/06/16 08:24:25;;;;;;;3.00;2.05;;;;;;;26.92;40.06;96940.13;5095970;28;20538;-63
2022/06/16 08:26:51;;;;;;;3.92;1.95;;;;;;;26.72;40.02;96951.81;5095998;28;20027;-63
2022/06/16 08:29:18;;;;;;;4.25;1.90;;;;;;;26.63;40.74;96950.03;5096012;28;20103;-63
2022/06/16 08:31:45;;;;;;;4.18;1.83;;;;;;;26.60;38.82;96947.66;5095938;28;20081;-63
2022/06/16 08:34:11;;;;;;;4.85;2.40;;;;;;;26.74;38.93;96949.00;5095744;28;20046;-63
2022/06/16 08:36:37;;;;;;;3.40;2.17;;;;;;;26.37;39.57;96954.25;5095716;28;20020;-63
2022/06/16 08:39:05;;;;;;;5.22;1.98;;;;;;;25.99;42.18;96950.72;5095647;28;20370;-63
2022/06/16 08:41:38;;;;;;;4.97;2.20;;;;;;;25.79;42.88;96952.63;5095726;28;20024;-63
2022/06/16 08:44:17;;;;;;;4.00;2.10;;;;;;;25.70;45.77;96952.50;5095655;28;20099;-63
2022/06/16 08:47:02;;;;;;;6.22;2.33;;;;;;;25.94;40.93;96939.59;5095605;28;20510;-63
2022/06/16 08:49:45;;;;;;;2.55;2.20;;;;;;;26.19;42.00;96946.13;5095638;28;20036;-62
2022/06/16 08:52:35;;;;;;;7.97;2.55;;;;;;;26.48;39.83;96947.00;5095390;28;20065;-63
2022/06/16 08:55:03;;;;;;;4.75;2.20;;;;;;;26.17;41.08;96945.44;5095412;28;20028;-63
2022/06/16 08:57:54;;;;;;;5.82;2.20;;;;;;;26.17;41.53;96944.59;5095197;28;20482;-63
2022/06/16 09:00:27;;;;;;;7.20;2.38;;;;;;;26.37;40.40;96945.41;5095458;28;20469;-63
2022/06/16 09:03:19;;;;;;;3.97;2.42;;;;;;;26.65;40.92;96933.78;5095362;28;20024;-63
2022/06/16 09:05:57;;;;;;;9.75;2.53;;;;;;;26.83;39.12;96937.38;5095252;28;20486;-63
2022/06/16 09:08:37;;;;;;;7.00;2.45;;;;;;;27.00;38.79;96933.03;5095042;28;20031;-63
2022/06/16 09:11:24;;;;;;;4.30;2.13;;;;;;;27.29;40.66;96936.47;5095160;28;20700;-63
2022/06/16 09:13:58;;;;;;;5.78;2.20;;;;;;;27.59;38.40;96930.81;5095161;28;20043;-63
2022/06/16 09:17:00;;;;;;;2.97;2.35;;;;;;;27.94;37.94;96928.22;5094593;28;20080;-63
2022/06/16 09:19:49;;;;;;;3.20;2.40;;;;;;;27.95;35.96;96928.06;5094825;28;20028;-63
2022/06/16 09:22:32;;;;;;;6.72;2.20;;;;;;;28.36;36.66;96931.97;5056914;28;20063;-63
2022/06/16 09:25:19;;;;;;;6.18;2.60;;;;;;;28.30;36.66;96924.56;5094855;28;20077;-63
2022/06/16 09:27:54;;;;;;;5.18;2.38;;;;;;;28.25;35.13;96927.69;5094804;28;20117;-63
2022/06/16 09:30:26;;;;;;;2.97;2.25;;;;;;;28.31;34.10;96924.41;5094732;28;20031;-63
2022/06/16 09:32:59;;;;;;;5.63;2.30;;;;;;;28.45;38.57;96930.16;5093745;28;20028;-63
2022/06/16 09:35:34;;;;;;;2.95;2.55;;;;;;;28.57;37.85;96928.00;5094563;28;20387;-63
2022/06/16 09:38:12;;;;;;;3.95;2.25;;;;;;;28.79;37.85;96920.31;5094622;28;20134;-63
2022/06/16 09:40:40;;;;;;;4.75;2.40;;;;;;;29.01;36.83;96918.88;5094592;28;20028;-63
2022/06/16 09:43:17;;;;;;;4.20;2.30;;;;;;;28.87;35.76;96912.28;5094447;28;20046;-63
2022/06/16 09:45:49;;;;;;;3.25;2.58;;;;;;;28.43;36.70;96916.03;5094370;28;20607;-63
2022/06/16 09:48:34;;;;;;;3.83;2.63;;;;;;;27.95;35.64;96911.06;5094382;28;20107;-63
2022/06/16 09:51:09;;;;;;;3.00;2.70;;;;;;;27.65;36.49;96913.25;5094254;28;20024;-63
2022/06/16 09:53:35;;;;;;;2.53;2.30;;;;;;;27.23;37.14;96919.13;5094325;28;20111;-63
2022/06/16 09:56:12;;;;;;;3.75;2.58;;;;;;;27.25;40.89;96916.31;5094151;28;20181;-63
2022/06/16 09:58:51;;;;;;;6.78;2.72;;;;;;;27.24;40.87;96872.50;5094253;28;20032;-63
2022/06/16 10:01:20;;;;;;;4.60;2.67;;;;;;;27.81;39.28;96916.03;5094172;28;20023;-63
2022/06/16 10:03:57;;;;;;;4.03;2.70;;;;;;;27.62;37.25;96909.00;5094156;28;20025;-63
2022/06/16 10:06:30;;;;;;;4.00;2.20;;;;;;;27.67;39.11;96920.16;5094057;28;20489;-63
2022/06/16 10:09:14;;;;;;;5.75;2.72;;;;;;;27.81;37.87;96921.41;5094101;28;20040;-63
2022/06/16 10:11:59;;;;;;;2.70;2.50;;;;;;;27.66;38.50;96915.78;5094080;28;20032;-63
2022/06/16 10:14:27;;;;;;;3.80;2.33;;;;;;;27.61;38.30;96915.38;5093924;28;20040;-63
2022/06/16 10:17:03;;;;;;;7.78;2.38;;;;;;;27.69;38.56;96914.63;5093580;28;20142;-63
2022/06/16 10:19:33;;;;;;;3.70;2.40;;;;;;;27.57;37.06;96911.34;5093835;28;20470;-63
2022/06/16 10:22:00;;;;;;;3.78;2.67;;;;;;;27.66;37.49;96909.56;5093725;28;20470;-63
2022/06/16 10:24:34;;;;;;;4.57;2.75;;;;;;;27.73;39.67;96911.47;5093749;28;20530;-63
2022/06/16 10:26:59;;;;;;;3.75;2.75;;;;;;;27.53;40.07;96912.63;5093738;28;20517;-63
2022/06/16 10:29:32;;;;;;;4.85;2.80;;;;;;;27.73;38.09;96907.94;5093697;28;20102;-63
2022/06/16 10:32:00;;;;;;;3.53;2.42;;;;;;;27.30;36.57;96854.09;5093753;28;20016;-63
2022/06/16 10:34:34;;;;;;;3.90;2.60;;;;;;;27.23;36.65;96896.81;5093734;28;20028;-63
2022/06/16 10:37:25;;;;;;;5.43;2.75;;;;;;;26.99;38.61;96895.59;5093663;28;20071;-63
2022/06/16 10:39:56;;;;;;;;;;;;;;;26.74;40.24;96890.84;5093785;28;21320;-63
2022/06/16 10:42:33;;;;;;;3.58;2.75;;;;;;;26.79;38.14;96890.34;5093278;28;19920;-63
2022/06/16 10:45:09;;;;;;;5.72;2.72;;;;;;;26.97;37.64;96886.84;5093384;28;20022;-63
2022/06/16 10:48:00;;;;;;;5.13;2.80;;;;;;;26.81;38.61;96887.50;5093333;28;20028;-63
2022/06/16 10:50:45;;;;;;;3.33;2.53;;;;;;;26.41;39.26;96886.94;5093446;28;20024;-63
2022/06/16 10:53:25;;;;;;;5.93;2.75;;;;;;;26.35;40.95;96896.44;5093343;28;20554;-63
2022/06/16 10:55:55;;;;;;;3.60;2.47;;;;;;;26.29;40.55;96892.53;5093148;28;20028;-63
2022/06/16 10:58:23;;;;;;;;;;;;;;;26.67;41.51;96875.50;5093679;28;20035;-63
2022/06/16 11:01:07;;;;;;;2.60;2.40;;;;;;;26.63;38.58;96874.94;5093128;28;19916;-63
2022/06/16 11:03:54;;;;;;;5.85;2.65;;;;;;;26.40;38.22;96882.59;5093202;28;20028;-62
2022/06/16 11:06:23;;;;;;;3.90;2.08;;;;;;;26.59;40.10;96871.75;5082175;28;20033;-63
2022/06/16 11:08:59;;;;;;;8.10;2.50;;;;;;;26.84;37.96;96871.97;5075205;28;20111;-63
2022/06/16 11:11:39;;;;;;;3.17;2.42;;;;;;;26.81;36.58;96877.63;5093059;28;20194;-63
2022/06/16 11:14:11;;;;;;;3.38;2.67;;;;;;;26.46;39.13;96877.44;5093043;28;20482;-63
2022/06/16 11:16:37;;;;;;;4.65;2.45;;;;;;;26.02;39.49;96867.38;5092732;28;20044;-63
2022/06/16 11:19:10;;;;;;;4.47;2.55;;;;;;;25.98;37.20;96866.81;5091816;28;20115;-63
2022/06/16 11:21:37;;;;;;;4.55;2.47;;;;;;;26.20;38.36;96864.75;5093043;28;20093;-63
2022/06/16 11:24:08;;;;;;;2.70;2.03;;;;;;;26.25;38.46;96870.47;5093082;28;20483;-63
2022/06/16 11:26:35;;;;;;;;;;;;;;;26.39;35.71;96864.81;5093512;28;20024;-63
2022/06/16 11:29:12;;;;;;;5.05;2.08;;;;;;;26.38;36.24;96869.31;5093005;28;19908;-63
2022/06/16 11:31:44;;;;;;;3.78;2.00;;;;;;;26.41;35.77;96866.34;5093100;28;20114;-63
2022/06/16 11:34:18;;;;;;;3.88;2.13;;;;;;;26.61;35.03;96852.81;5092922;28;20426;-63
2022/06/16 11:36:55;;;;;;;4.55;1.85;;;;;;;26.77;35.15;96857.47;5092820;28;20036;-63
2022/06/16 11:39:23;;;;;;;2.58;1.80;;;;;;;26.82;35.23;96855.16;5092892;28;20032;-63
2022/06/16 11:41:53;;;;;;;7.78;2.10;;;;;;;26.76;34.60;96850.44;5092939;28;20543;-63
2022/06/16 11:44:25;;;;;;;;;;;;;;;26.45;35.72;96854.31;5093298;28;20082;-63
2022/06/16 11:47:28;;;;;;;4.68;2.20;;;;;;;26.64;37.19;96851.66;5092736;28;19912;-63
2022/06/16 11:50:09;;;;;;;4.55;1.98;;;;;;;26.69;33.87;96846.66;5092692;28;20056;-63
2022/06/16 11:52:51;;;;;;;4.63;1.67;;;;;;;26.88;35.78;96848.38;5092749;28;20024;-62
2022/06/16 11:55:45;;;;;;;1.90;1.80;;;;;;;27.21;34.17;96848.63;5094032;28;20028;-63
2022/06/16 11:58:14;;;;;;;3.25;2.42;;;;;;;27.23;35.62;96841.28;5096549;28;20089;-63
2022/06/16 12:01:24;;;;;;;7.45;2.33;;;;;;;27.37;37.52;96849.78;5096472;28;20435;-62
2022/06/16 12:04:08;;;;;;;2.65;1.83;;;;;;;26.78;34.67;96843.06;5014451;28;20100;-63
2022/06/16 12:06:58;;;;;;;4.13;1.65;;;;;;;26.88;35.22;96848.38;4997945;28;20065;-62
2022/06/16 12:09:29;;;;;;;3.58;1.80;;;;;;;27.06;36.07;96845.66;5079295;28;20044;-63
2022/06/16 12:12:13;;;;;;;3.97;2.03;;;;;;;27.08;34.12;96843.69;5096409;28;20023;-63
2022/06/16 12:14:56;;;;;;;4.70;1.95;;;;;;;27.12;34.97;96833.50;5096211;28;20078;-63